createdAt,value
2023-06-03T00:01:12.744Z,22.26
2023-06-03T00:04:17.567Z,22.28
2023-06-03T00:07:20.827Z,22.29
2023-06-03T00:10:23.972Z,22.30
2023-06-03T00:13:27.000Z,22.29
2023-06-03T00:16:36.694Z,22.29
2023-06-03T00:19:39.819Z,22.29
2023-06-03T00:22:42.909Z,22.28
2023-06-03T00:25:46.110Z,22.28
2023-06-03T00:28:49.391Z,22.28
2023-06-03T00:31:54.135Z,22.28
2023-06-03T00:34:57.412Z,22.27
2023-06-03T00:38:00.682Z,22.24
2023-06-03T00:41:03.931Z,22.26
2023-06-03T00:44:07.165Z,22.27
2023-06-03T00:47:11.776Z,22.26
2023-06-03T00:50:15.753Z,22.27
2023-06-03T00:53:19.032Z,22.26
2023-06-03T00:56:22.396Z,22.25
2023-06-03T00:59:25.614Z,22.23
2023-06-03T01:02:30.796Z,22.24
2023-06-03T01:05:34.022Z,22.26
2023-06-03T01:08:47.056Z,22.23
2023-06-03T01:11:59.750Z,22.23
2023-06-03T01:15:05.770Z,22.24
2023-06-03T01:18:10.508Z,22.23
2023-06-03T01:21:15.249Z,22.24
2023-06-03T01:24:21.510Z,22.24
2023-06-03T01:27:24.598Z,22.22
2023-06-03T01:30:27.829Z,22.22
2023-06-03T01:33:31.812Z,22.23
2023-06-03T01:36:36.679Z,22.23
2023-06-03T01:39:42.502Z,22.22
2023-06-03T01:42:45.956Z,22.22
2023-06-03T01:45:49.283Z,22.20
2023-06-03T01:48:52.446Z,22.20
2023-06-03T01:51:55.552Z,22.19
2023-06-03T01:55:00.169Z,22.19
2023-06-03T01:58:03.568Z,22.19
2023-06-03T02:01:06.915Z,22.20
2023-06-03T02:04:10.124Z,22.21
2023-06-03T02:07:13.382Z,22.21
2023-06-03T02:10:17.878Z,22.20
2023-06-03T02:13:21.548Z,22.19
2023-06-03T02:16:24.657Z,22.18
2023-06-03T02:19:28.580Z,22.16
2023-06-03T02:22:32.129Z,22.19
2023-06-03T02:25:37.074Z,22.19
2023-06-03T02:28:40.213Z,22.15
2023-06-03T02:31:44.638Z,22.15
2023-06-03T02:34:48.033Z,22.14
2023-06-03T02:37:52.264Z,22.13
2023-06-03T02:40:56.794Z,22.14
2023-06-03T02:43:59.893Z,22.13
2023-06-03T02:47:03.045Z,22.10
2023-06-03T02:50:07.166Z,22.10
2023-06-03T02:53:11.102Z,22.11
2023-06-03T02:56:16.053Z,22.12
2023-06-03T02:59:19.125Z,22.10
2023-06-03T03:02:22.254Z,22.11
2023-06-03T03:05:26.254Z,22.11
2023-06-03T03:08:29.426Z,22.09
2023-06-03T03:11:33.946Z,22.06
2023-06-03T03:14:37.127Z,22.07
2023-06-03T03:17:40.615Z,22.08
2023-06-03T03:20:43.869Z,22.10
2023-06-03T03:23:47.071Z,22.08
2023-06-03T03:26:51.956Z,22.10
2023-06-03T03:29:56.699Z,22.06
2023-06-03T03:33:00.406Z,22.10
2023-06-03T03:36:09.621Z,22.14
2023-06-03T03:39:13.055Z,22.15
2023-06-03T03:42:17.583Z,22.15
2023-06-03T03:45:22.783Z,22.13
2023-06-03T03:48:31.521Z,22.14
2023-06-03T03:51:36.787Z,22.13
2023-06-03T03:54:40.676Z,22.17
2023-06-03T03:57:45.446Z,22.17
2023-06-03T04:00:49.031Z,22.17
2023-06-03T04:03:53.065Z,22.17
2023-06-03T04:06:56.598Z,22.19
2023-06-03T04:09:59.659Z,22.19
2023-06-03T04:13:07.583Z,22.22
2023-06-03T04:16:12.782Z,22.20
2023-06-03T04:19:18.908Z,22.18
2023-06-03T04:22:23.669Z,22.19
2023-06-03T04:25:26.847Z,22.18
2023-06-03T04:28:31.298Z,22.18
2023-06-03T04:31:34.374Z,22.13
2023-06-03T04:34:50.016Z,22.06
2023-06-03T04:37:53.098Z,22.11
2023-06-03T04:40:56.370Z,22.08
2023-06-03T04:44:02.670Z,22.11
2023-06-03T04:47:06.248Z,22.11
2023-06-03T04:50:10.176Z,22.08
2023-06-03T04:53:13.868Z,22.11
2023-06-03T04:56:18.119Z,22.13
2023-06-03T04:59:22.738Z,22.16
2023-06-03T05:02:31.254Z,22.15
2023-06-03T05:05:34.467Z,22.17
2023-06-03T05:08:37.686Z,22.13
2023-06-03T05:11:40.777Z,22.17
2023-06-03T05:14:45.879Z,22.09
2023-06-03T05:17:50.017Z,22.11
2023-06-03T05:20:53.234Z,22.10
2023-06-03T05:23:56.455Z,22.10
2023-06-03T05:26:59.616Z,22.05
2023-06-03T05:30:04.120Z,22.07
2023-06-03T05:33:08.353Z,22.10
2023-06-03T05:36:11.715Z,22.05
2023-06-03T05:39:15.119Z,22.10
2023-06-03T05:42:18.194Z,22.03
2023-06-03T05:45:22.666Z,22.07
2023-06-03T05:48:25.773Z,21.96
2023-06-03T05:51:28.889Z,22.05
2023-06-03T05:54:31.953Z,22.06
2023-06-03T05:57:35.843Z,22.02
2023-06-03T06:00:40.343Z,21.93
2023-06-03T06:03:43.640Z,21.83
2023-06-03T06:06:46.955Z,21.99
2023-06-03T06:09:50.000Z,22.00
2023-06-03T06:12:53.364Z,21.97
2023-06-03T06:16:02.673Z,21.93
2023-06-03T06:19:05.833Z,21.95
2023-06-03T06:22:08.975Z,21.97
2023-06-03T06:25:12.435Z,21.62
2023-06-03T06:28:15.567Z,21.57
2023-06-03T06:31:20.375Z,21.76
2023-06-03T06:34:24.009Z,21.67
2023-06-03T06:37:27.188Z,21.46
2023-06-03T06:40:35.143Z,21.53
2023-06-03T06:43:38.211Z,21.54
2023-06-03T06:46:42.791Z,21.50
2023-06-03T06:49:46.006Z,21.40
2023-06-03T06:52:49.117Z,21.55
2023-06-03T06:55:53.841Z,21.70
2023-06-03T06:58:56.857Z,21.94
2023-06-03T07:02:01.404Z,21.79
2023-06-03T07:05:04.686Z,21.74
2023-06-03T07:08:08.558Z,21.79
2023-06-03T07:11:11.738Z,21.82
2023-06-03T07:14:15.072Z,21.98
2023-06-03T07:17:19.565Z,21.97
2023-06-03T07:20:24.492Z,21.98
2023-06-03T07:23:28.924Z,22.00
2023-06-03T07:26:33.281Z,22.04
2023-06-03T07:29:39.463Z,22.07
2023-06-03T07:32:45.657Z,22.11
2023-06-03T07:35:53.332Z,22.16
2023-06-03T07:39:01.957Z,22.19
2023-06-03T07:42:08.094Z,22.20
2023-06-03T07:45:11.631Z,22.13
2023-06-03T07:48:17.265Z,22.19
2023-06-03T07:51:20.609Z,22.31
2023-06-03T07:54:24.192Z,22.32
2023-06-03T07:57:27.503Z,22.34
2023-06-03T08:00:31.101Z,22.33
2023-06-03T08:03:36.599Z,22.33
2023-06-03T08:06:41.047Z,22.27
2023-06-03T08:09:44.609Z,22.20
2023-06-03T08:12:47.876Z,22.18
2023-06-03T08:15:51.098Z,22.14
2023-06-03T08:18:56.665Z,22.19
2023-06-03T08:21:59.810Z,22.24
2023-06-03T08:25:02.966Z,22.31
2023-06-03T08:28:06.187Z,22.36
2023-06-03T08:31:09.408Z,22.33
2023-06-03T08:34:13.948Z,22.44
2023-06-03T08:37:17.303Z,22.53
2023-06-03T08:40:22.808Z,22.59
2023-06-03T08:43:35.467Z,22.64
2023-06-03T08:46:49.051Z,22.69
2023-06-03T08:50:02.138Z,22.78
2023-06-03T08:53:10.174Z,22.83
2023-06-03T08:56:14.668Z,22.86
2023-06-03T08:59:22.207Z,22.90
2023-06-03T09:02:26.076Z,22.93
2023-06-03T09:05:31.169Z,22.97
2023-06-03T09:08:37.071Z,22.98
2023-06-03T09:11:41.120Z,23.01
2023-06-03T09:14:46.243Z,23.05
2023-06-03T09:17:49.383Z,23.07
2023-06-03T09:20:53.943Z,23.09
2023-06-03T09:23:57.161Z,23.06
2023-06-03T09:27:00.509Z,23.09
2023-06-03T09:30:05.390Z,23.09
2023-06-03T09:33:08.562Z,23.09
2023-06-03T09:36:16.277Z,23.09
2023-06-03T09:39:34.253Z,22.95
2023-06-03T09:42:47.439Z,23.11
2023-06-03T09:45:50.565Z,23.10
2023-06-03T09:48:54.345Z,23.11
2023-06-03T09:51:58.913Z,23.12
2023-06-03T09:55:03.566Z,23.10
2023-06-03T09:58:09.985Z,23.07
2023-06-03T10:01:14.506Z,23.09
2023-06-03T10:04:21.854Z,23.08
2023-06-03T10:07:26.802Z,23.08
2023-06-03T10:10:29.913Z,23.06
2023-06-03T10:13:33.136Z,23.06
2023-06-03T10:16:36.281Z,23.04
2023-06-03T10:19:40.547Z,23.05
2023-06-03T10:22:45.990Z,23.06
2023-06-03T10:25:53.747Z,23.06
2023-06-03T10:28:58.928Z,23.05
2023-06-03T10:32:03.648Z,23.05
2023-06-03T10:35:07.712Z,23.05
2023-06-03T10:38:12.634Z,23.02
2023-06-03T10:41:16.328Z,23.02
2023-06-03T10:44:20.417Z,23.08
2023-06-03T10:47:27.865Z,23.09
2023-06-03T10:50:43.037Z,23.14
2023-06-03T10:54:03.954Z,23.17
2023-06-03T10:57:10.164Z,23.18
2023-06-03T11:00:14.229Z,23.18
2023-06-03T11:03:18.069Z,23.22
2023-06-03T11:06:47.940Z,23.21
2023-06-03T11:09:52.450Z,23.21
2023-06-03T11:12:55.512Z,23.19
2023-06-03T11:16:05.577Z,23.21
2023-06-03T11:19:30.025Z,23.22
2023-06-03T11:22:46.305Z,23.24
2023-06-03T11:25:50.898Z,23.24
2023-06-03T11:28:54.004Z,23.22
2023-06-03T11:32:14.121Z,23.24
2023-06-03T11:35:30.898Z,23.21
2023-06-03T11:39:01.602Z,23.20
2023-06-03T11:42:09.871Z,23.15
2023-06-03T11:45:31.024Z,23.19
2023-06-03T11:48:38.630Z,23.17
2023-06-03T11:51:41.995Z,23.17
2023-06-03T11:54:49.163Z,23.18
2023-06-03T11:57:56.219Z,23.18
2023-06-03T12:01:20.154Z,23.18
2023-06-03T12:04:23.324Z,23.21
2023-06-03T12:07:26.405Z,23.18
2023-06-03T12:10:30.544Z,23.15
2023-06-03T12:13:42.458Z,23.16
2023-06-03T12:16:46.704Z,23.17
2023-06-03T12:19:50.759Z,23.13
2023-06-03T12:23:00.764Z,23.10
2023-06-03T12:26:03.924Z,23.15
2023-06-03T12:29:10.276Z,23.14
2023-06-03T12:32:13.854Z,23.12
2023-06-03T12:35:17.310Z,23.17
2023-06-03T12:38:20.443Z,23.15
2023-06-03T12:41:23.667Z,23.15
2023-06-03T12:44:28.439Z,23.15
2023-06-03T12:47:31.725Z,23.14
2023-06-03T12:50:36.436Z,23.13
2023-06-03T12:53:39.631Z,23.11
2023-06-03T12:56:44.746Z,23.13
2023-06-03T13:00:10.748Z,23.10
2023-06-03T13:03:14.299Z,23.14
2023-06-03T13:06:17.679Z,23.15
2023-06-03T13:09:20.823Z,23.11
2023-06-03T13:12:24.744Z,23.07
2023-06-03T13:15:29.850Z,23.02
2023-06-03T13:18:33.139Z,23.01
2023-06-03T13:21:36.570Z,22.97
2023-06-03T13:24:39.635Z,22.57
2023-06-03T13:27:43.764Z,22.65
2023-06-03T13:30:50.398Z,22.70
2023-06-03T13:33:53.715Z,22.79
2023-06-03T13:36:57.120Z,22.84
2023-06-03T13:40:00.301Z,22.88
2023-06-03T13:43:04.191Z,22.89
2023-06-03T13:46:09.443Z,22.83
2023-06-03T13:49:12.743Z,22.81
2023-06-03T13:52:15.942Z,22.81
2023-06-03T13:55:19.661Z,22.83
2023-06-03T13:58:23.160Z,22.80
2023-06-03T14:01:28.473Z,22.78
2023-06-03T14:04:32.015Z,22.86
2023-06-03T14:07:35.161Z,22.89
2023-06-03T14:10:38.345Z,22.83
2023-06-03T14:13:41.457Z,22.69
2023-06-03T14:16:46.489Z,22.86
2023-06-03T14:19:49.641Z,22.88
2023-06-03T14:22:52.794Z,22.80
2023-06-03T14:25:56.116Z,22.80
2023-06-03T14:28:59.180Z,22.80
2023-06-03T14:32:04.396Z,22.83
2023-06-03T14:35:09.710Z,22.88
2023-06-03T14:38:12.809Z,22.89
2023-06-03T14:41:16.438Z,22.94
2023-06-03T14:44:19.567Z,22.98
2023-06-03T14:47:24.291Z,23.00
2023-06-03T14:50:27.407Z,23.00
2023-06-03T14:53:30.502Z,23.02
2023-06-03T14:56:33.654Z,23.04
2023-06-03T14:59:36.867Z,23.05
2023-06-03T15:02:41.477Z,23.06
2023-06-03T15:05:44.633Z,23.06
2023-06-03T15:08:47.807Z,23.08
2023-06-03T15:11:51.015Z,23.06
2023-06-03T15:14:54.292Z,23.07
2023-06-03T15:17:58.885Z,23.08
2023-06-03T15:21:01.997Z,23.10
2023-06-03T15:24:05.749Z,23.08
2023-06-03T15:27:09.534Z,23.02
2023-06-03T15:30:13.520Z,23.00
2023-06-03T15:33:18.321Z,23.01
2023-06-03T15:36:21.650Z,23.01
2023-06-03T15:39:24.887Z,23.06
2023-06-03T15:42:28.105Z,23.05
2023-06-03T15:45:31.234Z,23.04
2023-06-03T15:48:35.828Z,23.05
2023-06-03T15:51:39.785Z,23.04
2023-06-03T15:54:43.037Z,23.04
2023-06-03T15:57:46.219Z,23.03
2023-06-03T16:00:49.253Z,23.04
2023-06-03T16:03:54.024Z,23.08
2023-06-03T16:06:57.567Z,23.08
2023-06-03T16:10:00.752Z,23.14
2023-06-03T16:13:03.902Z,23.20
2023-06-03T16:16:07.541Z,23.17
2023-06-03T16:19:12.307Z,23.11
2023-06-03T16:22:15.629Z,23.06
2023-06-03T16:25:18.870Z,23.07
2023-06-03T16:28:22.507Z,23.06
2023-06-03T16:31:26.090Z,23.08
2023-06-03T16:34:30.670Z,23.05
2023-06-03T16:37:33.828Z,23.06
2023-06-03T16:40:36.915Z,23.04
2023-06-03T16:43:40.065Z,23.00
2023-06-03T16:46:43.159Z,23.00
2023-06-03T16:49:47.713Z,22.99
2023-06-03T16:52:50.864Z,22.99
2023-06-03T16:55:53.926Z,22.97
2023-06-03T16:58:56.967Z,22.96
2023-06-03T17:02:00.096Z,22.96
2023-06-03T17:05:04.953Z,22.96
2023-06-03T17:08:08.213Z,23.04
2023-06-03T17:11:11.413Z,23.09
2023-06-03T17:14:14.635Z,23.15
2023-06-03T17:17:19.181Z,23.19
2023-06-03T17:20:23.960Z,23.24
2023-06-03T17:23:27.205Z,23.15
2023-06-03T17:26:30.295Z,23.11
2023-06-03T17:29:33.432Z,23.09
2023-06-03T17:32:36.708Z,23.07
2023-06-03T17:35:41.263Z,23.06
2023-06-03T17:38:44.390Z,23.06
2023-06-03T17:41:48.642Z,23.06
2023-06-03T17:44:51.742Z,23.08
2023-06-03T17:47:54.911Z,23.06
2023-06-03T17:50:59.604Z,23.05
2023-06-03T17:54:02.775Z,23.07
2023-06-03T17:57:06.895Z,23.08
2023-06-03T18:00:11.571Z,23.05
2023-06-03T18:03:14.897Z,23.03
2023-06-03T18:06:19.682Z,23.03
2023-06-03T18:09:22.825Z,23.05
2023-06-03T18:12:25.907Z,23.00
2023-06-03T18:15:29.374Z,23.01
2023-06-03T18:18:33.992Z,23.03
2023-06-03T18:21:38.531Z,23.01
2023-06-03T18:24:41.649Z,23.09
2023-06-03T18:27:44.832Z,23.07
2023-06-03T18:30:47.929Z,23.10
2023-06-03T18:33:52.113Z,23.10
2023-06-03T18:36:56.592Z,23.09
2023-06-03T18:40:00.010Z,23.10
2023-06-03T18:43:03.232Z,23.09
2023-06-03T18:46:06.747Z,23.12
2023-06-03T18:49:10.138Z,23.11
2023-06-03T18:52:14.569Z,23.10
2023-06-03T18:55:17.993Z,23.09
2023-06-03T18:58:21.269Z,23.10
2023-06-03T19:01:24.468Z,23.10
2023-06-03T19:04:27.633Z,23.13
2023-06-03T19:07:32.380Z,23.12
2023-06-03T19:10:35.564Z,23.14
2023-06-03T19:13:38.605Z,23.13
2023-06-03T19:16:43.852Z,23.12
2023-06-03T19:19:47.344Z,23.14
2023-06-03T19:22:51.792Z,23.11
2023-06-03T19:25:55.601Z,23.07
2023-06-03T19:28:59.112Z,23.04
2023-06-03T19:32:02.601Z,23.03
2023-06-03T19:35:06.446Z,23.02
2023-06-03T19:38:11.049Z,23.00
2023-06-03T19:41:14.461Z,22.98
2023-06-03T19:44:17.542Z,22.99
2023-06-03T19:47:20.755Z,22.99
2023-06-03T19:50:23.957Z,22.96
2023-06-03T19:53:28.883Z,22.96
2023-06-03T19:56:31.982Z,22.96
2023-06-03T19:59:35.160Z,22.95
2023-06-03T20:02:38.491Z,22.95
2023-06-03T20:05:43.616Z,22.96
2023-06-03T20:08:48.342Z,22.96
2023-06-03T20:11:52.218Z,22.92
2023-06-03T20:14:55.512Z,22.93
2023-06-03T20:17:58.902Z,22.92
2023-06-03T20:21:02.238Z,22.90
2023-06-03T20:24:08.385Z,22.92
2023-06-03T20:27:12.782Z,22.92
2023-06-03T20:30:16.017Z,22.89
2023-06-03T20:33:19.298Z,22.89
2023-06-03T20:36:23.923Z,22.89
2023-06-03T20:39:28.978Z,22.89
2023-06-03T20:42:32.220Z,22.88
2023-06-03T20:45:40.807Z,22.88
2023-06-03T20:48:43.901Z,22.89
2023-06-03T20:51:46.941Z,22.89
2023-06-03T20:54:51.410Z,22.88
2023-06-03T20:57:54.553Z,22.87
2023-06-03T21:00:57.740Z,22.87
2023-06-03T21:04:01.061Z,22.88
2023-06-03T21:07:06.343Z,22.88
2023-06-03T21:10:11.551Z,22.86
2023-06-03T21:13:16.728Z,22.86
2023-06-03T21:16:19.927Z,22.85
2023-06-03T21:19:23.631Z,22.87
2023-06-03T21:22:27.424Z,22.85
2023-06-03T21:25:31.874Z,22.86
2023-06-03T21:28:34.992Z,22.85
2023-06-03T21:31:39.679Z,22.84
2023-06-03T21:34:42.792Z,22.84
2023-06-03T21:37:45.979Z,22.84
2023-06-03T21:40:50.433Z,22.83
2023-06-03T21:43:53.580Z,22.83
2023-06-03T21:46:56.797Z,22.83
2023-06-03T21:49:59.913Z,22.83
2023-06-03T21:53:06.417Z,22.83
2023-06-03T21:56:10.926Z,22.84
2023-06-03T21:59:14.050Z,22.85
2023-06-03T22:02:17.327Z,22.84
2023-06-03T22:05:20.481Z,22.82
2023-06-03T22:08:23.639Z,22.83
2023-06-03T22:11:28.516Z,22.83
2023-06-03T22:14:31.633Z,22.83
2023-06-03T22:17:34.784Z,22.82
2023-06-03T22:20:37.871Z,22.81
2023-06-03T22:23:41.150Z,22.81
2023-06-03T22:26:45.886Z,22.83
2023-06-03T22:29:48.900Z,22.82
2023-06-03T22:32:51.925Z,22.81
2023-06-03T22:35:56.558Z,22.80
2023-06-03T22:38:59.852Z,22.80
2023-06-03T22:42:04.386Z,22.81
2023-06-03T22:45:08.391Z,22.82
2023-06-03T22:48:11.591Z,22.81
2023-06-03T22:51:14.648Z,22.81
2023-06-03T22:54:18.393Z,22.80
2023-06-03T22:57:22.904Z,22.81
2023-06-03T23:00:25.999Z,22.82
2023-06-03T23:03:29.091Z,22.81
2023-06-03T23:06:32.282Z,22.81
2023-06-03T23:09:35.641Z,22.80
2023-06-03T23:12:40.129Z,22.79
2023-06-03T23:15:44.101Z,22.79
2023-06-03T23:18:47.181Z,22.78
2023-06-03T23:21:50.258Z,22.79
2023-06-03T23:24:53.318Z,22.80
2023-06-03T23:27:57.841Z,22.78
2023-06-03T23:31:01.781Z,22.79
2023-06-03T23:34:04.919Z,22.80
2023-06-03T23:37:08.036Z,22.80
2023-06-03T23:40:12.599Z,22.80
2023-06-03T23:43:17.145Z,22.79
2023-06-03T23:46:20.324Z,22.81
2023-06-03T23:49:23.603Z,22.79
2023-06-03T23:52:26.776Z,22.80
2023-06-03T23:55:29.792Z,22.80
2023-06-03T23:58:34.367Z,22.81
